createdAt,value
2022-10-11T00:01:18.662Z,12.03
2022-10-11T00:03:45.143Z,12.01
2022-10-11T00:06:11.614Z,11.97
2022-10-11T00:08:38.158Z,12.07
2022-10-11T00:11:06.635Z,12.03
2022-10-11T00:13:33.449Z,12.16
2022-10-11T00:15:59.959Z,12.15
2022-10-11T00:18:26.430Z,12.19
2022-10-11T00:21:04.780Z,12.10
2022-10-11T00:23:31.689Z,12.25
2022-10-11T00:26:03.123Z,12.13
2022-10-11T00:28:30.157Z,12.12
2022-10-11T00:30:57.099Z,12.14
2022-10-11T00:33:23.578Z,12.03
2022-10-11T00:35:50.044Z,12.08
2022-10-11T00:38:17.283Z,12.06
2022-10-11T00:40:44.823Z,12.09
2022-10-11T00:43:19.203Z,12.12
2022-10-11T00:45:57.568Z,12.23
2022-10-11T00:48:38.902Z,12.14
2022-10-11T00:51:14.023Z,12.17
2022-10-11T00:53:41.593Z,12.10
2022-10-11T00:56:17.260Z,12.08
2022-10-11T00:58:44.013Z,12.20
2022-10-11T01:01:11.002Z,12.18
2022-10-11T01:03:39.382Z,12.20
2022-10-11T01:06:06.406Z,12.18
2022-10-11T01:08:34.035Z,12.18
2022-10-11T01:11:00.965Z,12.22
2022-10-11T01:13:40.411Z,12.21
2022-10-11T01:16:18.256Z,12.27
2022-10-11T01:18:57.014Z,12.23
2022-10-11T01:21:44.571Z,12.30
2022-10-11T01:24:19.887Z,12.16
2022-10-11T01:27:25.491Z,12.28
2022-10-11T01:30:18.754Z,12.27
2022-10-11T01:33:03.310Z,12.20
2022-10-11T01:35:52.753Z,12.35
2022-10-11T01:38:46.658Z,12.30
2022-10-11T01:41:25.473Z,12.25
2022-10-11T01:43:55.433Z,12.19
2022-10-11T01:46:23.150Z,12.25
2022-10-11T01:48:55.368Z,12.23
2022-10-11T01:51:27.069Z,12.22
2022-10-11T01:53:53.497Z,12.21
2022-10-11T01:56:22.810Z,12.17
2022-10-11T01:59:17.365Z,12.12
2022-10-11T02:01:52.628Z,12.10
2022-10-11T02:04:44.434Z,12.05
2022-10-11T02:07:28.023Z,12.01
2022-10-11T02:09:58.142Z,12.05
2022-10-11T02:12:34.277Z,12.07
2022-10-11T02:15:06.773Z,12.09
2022-10-11T02:17:36.432Z,12.07
2022-10-11T02:20:08.967Z,12.03
2022-10-11T02:22:39.146Z,12.10
2022-10-11T02:25:10.572Z,12.12
2022-10-11T02:27:38.644Z,12.08
2022-10-11T02:30:07.690Z,12.05
2022-10-11T02:32:36.499Z,12.15
2022-10-11T02:35:03.221Z,12.14
2022-10-11T02:37:41.377Z,12.10
2022-10-11T02:40:27.591Z,12.11
2022-10-11T02:43:10.473Z,12.13
2022-10-11T02:45:40.881Z,12.11
2022-10-11T02:48:10.122Z,12.07
2022-10-11T02:50:39.975Z,12.05
2022-10-11T02:53:06.931Z,12.00
2022-10-11T02:55:33.449Z,11.93
2022-10-11T02:57:59.900Z,11.88
2022-10-11T03:00:26.454Z,11.82
2022-10-11T03:02:52.890Z,11.81
2022-10-11T03:05:19.764Z,11.82
2022-10-11T03:07:46.285Z,11.75
2022-10-11T03:10:12.796Z,11.71
2022-10-11T03:12:39.270Z,11.67
2022-10-11T03:15:06.247Z,11.66
2022-10-11T03:17:36.555Z,11.58
2022-10-11T03:20:05.537Z,11.63
2022-10-11T03:22:31.968Z,11.57
2022-10-11T03:25:03.339Z,11.54
2022-10-11T03:27:30.402Z,11.46
2022-10-11T03:29:57.730Z,11.40
2022-10-11T03:32:24.240Z,11.41
2022-10-11T03:34:50.700Z,11.36
2022-10-11T03:37:17.221Z,11.33
2022-10-11T03:39:45.480Z,11.31
2022-10-11T03:42:13.329Z,11.24
2022-10-11T03:44:39.846Z,11.21
2022-10-11T03:47:06.410Z,11.19
2022-10-11T03:49:32.852Z,11.15
2022-10-11T03:51:59.351Z,11.17
2022-10-11T03:54:26.160Z,11.12
2022-10-11T03:56:52.916Z,11.14
2022-10-11T03:59:19.389Z,11.09
2022-10-11T04:01:45.861Z,11.00
2022-10-11T04:04:12.332Z,11.00
2022-10-11T04:06:38.798Z,11.05
2022-10-11T04:09:05.256Z,10.98
2022-10-11T04:11:31.712Z,10.88
2022-10-11T04:13:58.274Z,10.95
2022-10-11T04:16:24.936Z,10.76
2022-10-11T04:18:51.426Z,10.61
2022-10-11T04:21:17.964Z,10.58
2022-10-11T04:23:44.578Z,10.51
2022-10-11T04:26:11.042Z,10.81
2022-10-11T04:28:37.566Z,10.97
2022-10-11T04:31:05.171Z,10.92
2022-10-11T04:33:31.674Z,11.00
2022-10-11T04:35:58.268Z,10.97
2022-10-11T04:38:24.720Z,10.99
2022-10-11T04:40:51.238Z,10.96
2022-10-11T04:43:18.897Z,10.95
2022-10-11T04:45:45.665Z,10.96
2022-10-11T04:48:12.121Z,11.02
2022-10-11T04:50:38.575Z,11.03
2022-10-11T04:53:07.561Z,10.98
2022-10-11T04:55:34.049Z,10.92
2022-10-11T04:58:02.087Z,10.90
2022-10-11T05:00:28.650Z,10.91
2022-10-11T05:02:55.241Z,10.84
2022-10-11T05:05:24.298Z,10.80
2022-10-11T05:07:51.432Z,10.73
2022-10-11T05:10:17.990Z,10.70
2022-10-11T05:12:44.442Z,10.73
2022-10-11T05:15:10.945Z,10.71
2022-10-11T05:17:37.401Z,10.63
2022-10-11T05:20:04.187Z,10.44
2022-10-11T05:22:30.630Z,10.34
2022-10-11T05:24:57.086Z,10.41
2022-10-11T05:27:23.536Z,10.48
2022-10-11T05:29:49.970Z,10.50
2022-10-11T05:32:16.479Z,10.40
2022-10-11T05:34:42.985Z,10.35
2022-10-11T05:37:09.691Z,10.37
2022-10-11T05:39:36.202Z,10.41
2022-10-11T05:42:04.594Z,10.32
2022-10-11T05:44:34.102Z,10.30
2022-10-11T05:47:00.554Z,10.30
2022-10-11T05:49:27.041Z,10.24
2022-10-11T05:51:53.518Z,10.22
2022-10-11T05:54:20.089Z,10.16
2022-10-11T05:56:46.546Z,10.15
2022-10-11T05:59:12.999Z,10.10
2022-10-11T06:01:39.593Z,10.17
2022-10-11T06:04:06.450Z,10.11
2022-10-11T06:06:33.243Z,10.03
2022-10-11T06:08:59.927Z,10.14
2022-10-11T06:11:27.655Z,10.12
2022-10-11T06:13:55.921Z,10.07
2022-10-11T06:16:22.370Z,10.03
2022-10-11T06:18:49.054Z,10.01
2022-10-11T06:21:15.536Z,10.05
2022-10-11T06:23:42.042Z,10.00
2022-10-11T06:26:09.817Z,9.98
2022-10-11T06:28:37.674Z,10.00
2022-10-11T06:31:05.731Z,9.80
2022-10-11T06:33:32.560Z,9.90
2022-10-11T06:36:01.038Z,10.02
2022-10-11T06:38:27.567Z,9.91
2022-10-11T06:40:54.097Z,10.01
2022-10-11T06:43:20.924Z,10.06
2022-10-11T06:45:47.374Z,9.98
2022-10-11T06:48:13.865Z,9.91
2022-10-11T06:50:59.194Z,9.91
2022-10-11T06:53:27.366Z,10.15
2022-10-11T06:55:53.837Z,10.20
2022-10-11T06:58:20.283Z,10.31
2022-10-11T07:00:46.790Z,10.19
2022-10-11T07:03:13.879Z,10.18
2022-10-11T07:05:40.407Z,10.21
2022-10-11T07:08:06.873Z,10.18
2022-10-11T07:10:35.331Z,10.19
2022-10-11T07:13:01.776Z,10.13
2022-10-11T07:15:28.249Z,10.21
2022-10-11T07:17:54.722Z,10.30
2022-10-11T07:20:21.182Z,10.24
2022-10-11T07:22:48.180Z,10.27
2022-10-11T07:25:14.660Z,10.21
2022-10-11T07:27:41.114Z,10.26
2022-10-11T07:30:08.050Z,10.44
2022-10-11T07:32:34.504Z,10.47
2022-10-11T07:35:00.988Z,10.51
2022-10-11T07:37:27.570Z,10.55
2022-10-11T07:39:54.192Z,10.65
2022-10-11T07:42:22.017Z,10.66
2022-10-11T07:44:48.550Z,10.78
2022-10-11T07:47:15.067Z,10.69
2022-10-11T07:49:41.517Z,10.84
2022-10-11T07:52:08.069Z,10.66
2022-10-11T07:54:34.540Z,10.89
2022-10-11T07:57:01.024Z,10.86
2022-10-11T07:59:27.483Z,10.99
2022-10-11T08:01:54.019Z,11.10
2022-10-11T08:04:21.452Z,11.19
2022-10-11T08:06:52.455Z,11.24
2022-10-11T08:09:20.029Z,11.09
2022-10-11T08:11:46.464Z,11.29
2022-10-11T08:14:12.918Z,11.17
2022-10-11T08:16:39.674Z,11.14
2022-10-11T08:19:06.706Z,11.40
2022-10-11T08:21:33.864Z,11.47
2022-10-11T08:24:02.439Z,11.64
2022-10-11T08:26:29.059Z,11.82
2022-10-11T08:28:55.602Z,11.83
2022-10-11T08:31:22.164Z,11.74
2022-10-11T08:33:48.658Z,11.84
2022-10-11T08:36:15.198Z,12.00
2022-10-11T08:38:42.114Z,11.92
2022-10-11T08:41:39.026Z,11.81
2022-10-11T08:44:51.755Z,11.96
2022-10-11T08:47:28.894Z,12.05
2022-10-11T08:50:00.781Z,12.06
2022-10-11T08:52:34.759Z,12.24
2022-10-11T08:55:08.154Z,12.13
2022-10-11T08:57:37.214Z,12.02
2022-10-11T09:00:13.978Z,11.89
2022-10-11T09:03:08.533Z,11.85
2022-10-11T09:07:06.087Z,11.80
2022-10-11T09:10:06.528Z,11.79
2022-10-11T09:16:15.723Z,11.92
2022-10-11T09:19:08.279Z,11.95
2022-10-11T09:21:43.256Z,12.11
2022-10-11T09:24:47.422Z,12.41
2022-10-11T09:28:03.234Z,12.39
2022-10-11T09:30:30.949Z,12.59
2022-10-11T09:33:13.586Z,12.79
2022-10-11T09:35:47.237Z,12.92
2022-10-11T09:38:33.545Z,13.12
2022-10-11T09:41:13.226Z,12.73
2022-10-11T09:43:41.121Z,12.52
2022-10-11T09:46:36.861Z,12.58
2022-10-11T09:49:11.338Z,12.83
2022-10-11T09:51:40.456Z,13.00
2022-10-11T09:54:07.174Z,13.05
2022-10-11T09:56:39.944Z,12.78
2022-10-11T09:59:27.138Z,12.82
2022-10-11T10:02:12.521Z,13.23
2022-10-11T10:05:00.731Z,13.33
2022-10-11T10:07:29.123Z,13.34
2022-10-11T10:09:56.259Z,13.46
2022-10-11T10:12:26.869Z,13.59
2022-10-11T10:15:18.986Z,13.66
2022-10-11T10:17:50.733Z,13.69
2022-10-11T10:20:24.126Z,13.87
2022-10-11T10:22:51.812Z,13.56
2022-10-11T10:25:51.231Z,13.36
2022-10-11T10:28:47.728Z,13.66
2022-10-11T10:31:40.282Z,13.72
2022-10-11T10:34:37.614Z,13.51
2022-10-11T10:41:09.997Z,14.11
2022-10-11T10:43:39.148Z,14.03
2022-10-11T10:46:35.346Z,13.96
2022-10-11T11:00:24.696Z,14.25
2022-10-11T11:03:00.437Z,14.18
2022-10-11T11:05:44.864Z,14.41
2022-10-11T11:09:19.936Z,14.55
2022-10-11T11:15:32.567Z,14.47
2022-10-11T11:18:37.522Z,14.70
2022-10-11T11:21:25.491Z,15.04
2022-10-11T11:24:56.605Z,14.63
2022-10-11T11:27:41.896Z,15.17
2022-10-11T11:30:33.494Z,15.22
2022-10-11T11:33:40.159Z,15.26
2022-10-11T11:36:43.469Z,15.41
2022-10-11T11:43:04.043Z,14.97
2022-10-11T11:46:06.607Z,15.00
2022-10-11T11:48:43.194Z,15.20
2022-10-11T11:51:53.185Z,14.96
2022-10-11T11:54:56.026Z,15.52
2022-10-11T11:58:23.041Z,15.13
2022-10-11T12:01:49.367Z,15.31
2022-10-11T12:05:06.463Z,15.26
2022-10-11T12:08:06.529Z,15.50
2022-10-11T12:11:31.683Z,15.49
2022-10-11T12:14:59.451Z,15.39
2022-10-11T12:25:43.858Z,15.97
2022-10-11T12:32:40.739Z,16.06
2022-10-11T12:40:48.618Z,16.33
2022-10-11T12:44:39.915Z,16.10
2022-10-11T12:46:58.685Z,16.31
2022-10-11T12:50:05.166Z,16.94
2022-10-11T12:53:36.123Z,15.82
2022-10-11T12:56:43.837Z,16.29
2022-10-11T13:00:18.419Z,16.25
2022-10-11T13:07:39.851Z,16.25
2022-10-11T13:10:54.479Z,15.92
2022-10-11T13:13:57.681Z,16.51
2022-10-11T13:16:28.909Z,17.34
2022-10-11T13:19:00.228Z,17.11
2022-10-11T13:21:28.864Z,16.88
2022-10-11T13:23:59.139Z,16.29
2022-10-11T13:26:28.123Z,15.98
2022-10-11T13:28:55.329Z,15.52
2022-10-11T13:31:24.664Z,15.68
2022-10-11T13:33:57.183Z,15.37
2022-10-11T13:36:27.017Z,15.91
2022-10-11T13:38:58.440Z,16.86
2022-10-11T13:41:27.396Z,15.73
2022-10-11T13:43:56.305Z,15.30
2022-10-11T13:46:26.162Z,15.53
2022-10-11T13:49:00.974Z,16.29
2022-10-11T13:51:37.086Z,15.14
2022-10-11T13:54:05.826Z,15.56
2022-10-11T13:56:44.187Z,15.39
2022-10-11T13:59:25.397Z,15.69
2022-10-11T14:02:00.111Z,16.25
2022-10-11T14:04:29.731Z,16.82
2022-10-11T14:07:02.576Z,16.08
2022-10-11T14:09:33.767Z,16.53
2022-10-11T14:12:30.684Z,16.23
2022-10-11T14:14:58.311Z,17.17
2022-10-11T14:17:37.648Z,16.52
2022-10-11T14:20:15.954Z,17.31
2022-10-11T14:22:43.040Z,17.81
2022-10-11T14:25:09.984Z,16.27
2022-10-11T14:27:36.587Z,16.38
2022-10-11T14:30:24.598Z,15.64
2022-10-11T14:33:01.215Z,15.65
2022-10-11T14:35:31.823Z,16.12
2022-10-11T14:37:58.557Z,16.14
2022-10-11T14:40:27.881Z,16.45
2022-10-11T14:42:55.086Z,16.92
2022-10-11T14:45:21.598Z,16.75
2022-10-11T14:47:48.579Z,16.78
2022-10-11T14:50:40.714Z,17.10
2022-10-11T14:53:10.867Z,17.03
2022-10-11T14:55:39.261Z,17.31
2022-10-11T14:58:06.499Z,17.44
2022-10-11T15:00:34.062Z,17.45
2022-10-11T15:03:00.638Z,17.52
2022-10-11T15:09:37.692Z,17.47
2022-10-11T15:36:44.205Z,16.55
2022-10-11T15:55:42.689Z,16.42
2022-10-11T16:51:57.818Z,14.84
2022-10-11T16:55:09.548Z,14.73
2022-10-11T17:31:20.480Z,13.70
2022-10-11T17:33:47.566Z,13.58
2022-10-11T17:36:17.444Z,13.61
2022-10-11T17:38:44.040Z,13.47
2022-10-11T17:41:11.458Z,13.40
2022-10-11T17:43:38.176Z,13.27
2022-10-11T17:46:06.328Z,13.18
2022-10-11T17:48:36.487Z,13.13
2022-10-11T17:51:11.738Z,13.03
2022-10-11T17:53:38.348Z,13.00
2022-10-11T17:56:11.014Z,13.02
2022-10-11T17:58:38.222Z,12.98
2022-10-11T18:01:11.373Z,12.90
2022-10-11T18:03:38.285Z,12.86
2022-10-11T18:06:07.020Z,12.74
2022-10-11T18:08:39.775Z,12.70
2022-10-11T18:11:16.308Z,12.60
2022-10-11T18:13:46.208Z,12.55
2022-10-11T18:16:14.959Z,12.71
2022-10-11T18:18:42.343Z,12.50
2022-10-11T18:21:09.049Z,12.46
2022-10-11T18:23:37.342Z,12.41
2022-10-11T18:26:14.899Z,12.39
2022-10-11T18:28:42.238Z,12.30
2022-10-11T18:31:13.743Z,12.21
2022-10-11T18:33:40.991Z,12.24
2022-10-11T18:36:09.310Z,12.18
2022-10-11T18:38:37.953Z,12.16
2022-10-11T18:41:09.099Z,12.04
2022-10-11T18:43:36.016Z,11.96
2022-10-11T18:46:07.730Z,11.94
2022-10-11T18:48:34.865Z,11.81
2022-10-11T18:51:14.356Z,11.75
2022-10-11T18:53:41.624Z,11.82
2022-10-11T18:56:10.431Z,11.84
2022-10-11T18:58:38.235Z,11.74
2022-10-11T19:01:12.523Z,11.64
2022-10-11T19:03:39.183Z,11.71
2022-10-11T19:06:09.311Z,11.72
2022-10-11T19:08:35.922Z,10.26
2022-10-11T19:11:10.620Z,10.94
2022-10-11T19:13:37.300Z,11.32
2022-10-11T19:16:15.856Z,11.35
2022-10-11T19:18:44.481Z,11.41
2022-10-11T19:21:13.302Z,11.38
2022-10-11T19:23:45.336Z,11.40
2022-10-11T19:26:18.233Z,11.48
2022-10-11T19:28:45.416Z,11.30
2022-10-11T19:31:16.231Z,11.23
2022-10-11T19:33:45.163Z,11.21
2022-10-11T19:36:16.536Z,11.14
2022-10-11T19:38:44.051Z,11.10
2022-10-11T19:41:11.062Z,11.08
2022-10-11T19:43:37.600Z,11.09
2022-10-11T19:46:06.602Z,11.13
2022-10-11T19:48:37.590Z,11.04
2022-10-11T19:51:06.697Z,11.06
2022-10-11T19:53:33.529Z,10.99
2022-10-11T19:56:06.810Z,10.97
2022-10-11T19:58:33.746Z,10.76
2022-10-11T20:01:21.959Z,10.77
2022-10-11T20:03:51.119Z,10.75
2022-10-11T20:06:19.799Z,10.80
2022-10-11T20:08:52.648Z,10.78
2022-10-11T20:11:26.776Z,10.68
2022-10-11T20:13:54.048Z,10.67
2022-10-11T20:16:23.053Z,10.76
2022-10-11T20:18:49.498Z,10.76
2022-10-11T20:21:18.708Z,10.59
2022-10-11T20:23:46.980Z,10.52
2022-10-11T20:26:24.102Z,10.52
2022-10-11T20:28:55.960Z,10.53
2022-10-11T20:31:34.335Z,10.35
2022-10-11T20:34:04.054Z,10.51
2022-10-11T20:36:32.000Z,10.46
2022-10-11T20:38:59.966Z,10.20
2022-10-11T20:41:36.921Z,10.11
2022-10-11T20:44:04.506Z,10.35
2022-10-11T20:46:33.589Z,10.29
2022-10-11T20:49:05.633Z,10.18
2022-10-11T20:51:34.114Z,10.12
2022-10-11T20:54:01.975Z,10.18
2022-10-11T20:56:29.599Z,10.25
2022-10-11T20:58:58.168Z,10.16
2022-10-11T21:01:34.565Z,10.01
2022-10-11T21:04:01.742Z,10.17
2022-10-11T21:06:29.621Z,10.06
2022-10-11T21:08:57.066Z,10.03
2022-10-11T21:11:27.607Z,9.88
2022-10-11T21:13:56.193Z,9.85
2022-10-11T21:16:22.720Z,9.70
2022-10-11T21:18:53.938Z,9.70
2022-10-11T21:21:20.686Z,9.77
2022-10-11T21:23:47.591Z,9.81
2022-10-11T21:26:17.913Z,9.76
2022-10-11T21:28:45.213Z,9.89
2022-10-11T21:31:17.767Z,9.91
2022-10-11T21:33:44.354Z,9.60
2022-10-11T21:36:22.106Z,9.55
2022-10-11T21:38:49.275Z,9.55
2022-10-11T21:41:20.664Z,9.52
2022-10-11T21:43:47.404Z,9.73
2022-10-11T21:46:23.071Z,9.50
2022-10-11T21:48:50.194Z,9.36
2022-10-11T21:51:25.536Z,9.47
2022-10-11T21:53:52.473Z,9.48
2022-10-11T21:56:19.409Z,9.48
2022-10-11T21:58:50.042Z,8.11
2022-10-11T22:01:17.987Z,6.59
2022-10-11T22:03:44.749Z,6.94
2022-10-11T22:06:11.374Z,8.18
2022-10-11T22:08:38.346Z,8.73
2022-10-11T22:11:05.815Z,8.85
2022-10-11T22:13:34.049Z,8.93
2022-10-11T22:16:05.804Z,8.94
2022-10-11T22:18:33.638Z,9.10
2022-10-11T22:21:06.913Z,9.00
2022-10-11T22:23:34.232Z,9.08
2022-10-11T22:26:09.239Z,9.14
2022-10-11T22:28:36.470Z,9.04
2022-10-11T22:31:05.145Z,9.02
2022-10-11T22:33:31.977Z,8.76
2022-10-11T22:36:00.326Z,8.63
2022-10-11T22:38:27.357Z,8.91
2022-10-11T22:40:54.810Z,8.85
2022-10-11T22:43:21.241Z,8.85
2022-10-11T22:45:47.998Z,8.90
2022-10-11T22:48:14.644Z,8.55
2022-10-11T22:50:41.536Z,7.92
2022-10-11T22:53:08.612Z,8.29
2022-10-11T22:55:35.990Z,8.50
2022-10-11T22:58:02.450Z,8.71
2022-10-11T23:00:28.933Z,8.68
2022-10-11T23:02:55.673Z,8.71
2022-10-11T23:05:22.394Z,8.59
2022-10-11T23:07:49.396Z,8.59
2022-10-11T23:10:16.279Z,8.66
2022-10-11T23:12:43.366Z,8.42
2022-10-11T23:15:10.518Z,8.40
2022-10-11T23:17:37.196Z,8.69
2022-10-11T23:20:04.963Z,8.42
2022-10-11T23:22:31.421Z,8.45
2022-10-11T23:24:57.893Z,8.52
2022-10-11T23:27:24.398Z,8.53
2022-10-11T23:29:50.874Z,8.70
